Time;durP1;ratioP1;P1;durP2;ratioP2;P2;SDS_P1;SDS_P2;PMS_P1;PMS_P2;Temp;Humidity;BMP_temperature;BMP_pressure;BME280_temperature;BME280_humidity;BME280_pressure;Samples;Min_cycle;Max_cycle;Signal;HPM_P1;HPM_P2
2021/06/15 00:00:21;;;;;;;4.57;4.28;;;23.70;55.10;;;;;;5092911;28;20631;-64
2021/06/15 00:02:47;;;;;;;3.97;3.67;;;23.70;55.20;;;;;;5073993;28;20176;-65
2021/06/15 00:05:13;;;;;;;5.22;4.30;;;23.70;55.20;;;;;;5093163;28;20270;-65
2021/06/15 00:07:38;;;;;;;4.10;3.80;;;23.70;55.20;;;;;;5097074;28;20500;-64
2021/06/15 00:10:09;;;;;;;3.88;3.58;;;23.70;55.10;;;;;;5096460;28;20173;-64
2021/06/15 00:12:35;;;;;;;4.22;3.92;;;23.70;55.20;;;;;;5096509;28;20567;-64
2021/06/15 00:15:00;;;;;;;4.03;3.72;;;23.70;55.10;;;;;;5096448;28;20254;-64
2021/06/15 00:17:26;;;;;;;4.78;3.90;;;23.70;55.20;;;;;;5096868;28;20288;-64
2021/06/15 00:19:51;;;;;;;4.38;3.97;;;23.70;55.10;;;;;;5096450;28;20232;-64
2021/06/15 00:22:17;;;;;;;3.90;3.50;;;23.70;55.20;;;;;;5096119;28;20177;-64
2021/06/15 00:24:45;;;;;;;5.50;3.63;;;23.70;55.20;;;;;;5096370;28;20694;-63
2021/06/15 00:27:11;;;;;;;4.47;3.85;;;23.70;55.20;;;;;;5096148;28;20648;-63
2021/06/15 00:29:36;;;;;;;3.92;3.38;;;23.70;55.20;;;;;;5095756;28;20243;-64
2021/06/15 00:32:02;;;;;;;4.57;4.18;;;23.70;55.20;;;;;;5096665;28;20256;-64
2021/06/15 00:34:27;;;;;;;4.20;3.90;;;23.70;55.20;;;;;;5096622;28;20185;-64
2021/06/15 00:36:53;;;;;;;4.07;3.78;;;23.70;55.20;;;;;;5095758;28;20536;-64
2021/06/15 00:39:18;;;;;;;3.90;3.45;;;23.70;55.20;;;;;;5096436;28;20640;-64
2021/06/15 00:41:44;;;;;;;3.97;3.65;;;23.70;55.20;;;;;;5096369;28;20178;-65
2021/06/15 00:44:11;;;;;;;3.20;3.00;;;23.70;55.30;;;;;;5095641;28;20213;-64
2021/06/15 00:46:37;;;;;;;3.38;3.15;;;23.70;55.20;;;;;;5096121;28;20185;-64
2021/06/15 00:49:02;;;;;;;3.85;3.55;;;23.70;55.20;;;;;;5096297;28;20338;-64
2021/06/15 00:51:28;;;;;;;3.88;3.55;;;23.60;55.20;;;;;;5077476;28;20520;-64
2021/06/15 00:53:56;;;;;;;3.88;3.58;;;23.60;55.20;;;;;;5095885;28;20176;-64
2021/06/15 00:56:22;;;;;;;3.55;3.25;;;23.60;55.20;;;;;;5096357;28;20223;-64
2021/06/15 00:58:47;;;;;;;3.67;3.38;;;23.60;55.30;;;;;;5095147;28;20174;-64
2021/06/15 01:01:13;;;;;;;3.90;3.60;;;23.60;55.80;;;;;;5096081;28;20231;-64
2021/06/15 01:03:38;;;;;;;4.13;3.72;;;23.60;55.20;;;;;;5095632;28;20282;-64
2021/06/15 01:06:07;;;;;;;3.38;3.08;;;23.60;55.30;;;;;;5095182;28;20543;-64
2021/06/15 01:08:52;;;;;;;3.78;3.45;;;23.60;55.30;;;;;;5077724;28;20189;-64
2021/06/15 01:11:27;;;;;;;3.47;3.28;;;23.60;55.30;;;;;;5077271;28;20177;-64
2021/06/15 01:14:11;;;;;;;3.67;3.38;;;23.60;55.20;;;;;;5095552;28;20177;-63
2021/06/15 01:16:45;;;;;;;3.70;3.40;;;23.60;55.20;;;;;;5095529;28;20173;-64
2021/06/15 01:19:26;;;;;;;3.90;3.60;;;23.60;55.20;;;;;;5077041;28;20181;-64
2021/06/15 01:22:09;;;;;;;4.03;3.40;;;23.60;55.30;;;;;;5078040;28;20238;-64
2021/06/15 01:24:38;;;;;;;3.20;3.00;;;23.60;55.30;;;;;;5077205;28;20216;-64
2021/06/15 01:27:42;;;;;;;3.55;3.28;;;23.60;55.20;;;;;;5077146;28;20636;-63
2021/06/15 01:30:13;;;;;;;2.90;2.70;;;23.60;55.20;;;;;;5077621;28;20643;-64
2021/06/15 01:32:44;;;;;;;3.40;3.10;;;23.60;55.20;;;;;;5094093;28;20194;-64
2021/06/15 01:35:10;;;;;;;3.85;3.40;;;23.60;55.20;;;;;;5077542;28;20209;-64
2021/06/15 01:37:41;;;;;;;3.53;3.22;;;23.60;55.30;;;;;;5095289;28;20181;-64
2021/06/15 01:40:17;;;;;;;3.28;3.08;;;23.50;55.20;;;;;;5094503;28;20533;-64
2021/06/15 01:42:50;;;;;;;3.22;3.03;;;23.50;55.20;;;;;;5077047;28;20203;-64
2021/06/15 01:45:37;;;;;;;2.95;2.75;;;23.50;55.20;;;;;;5077028;28;20210;-64
2021/06/15 01:48:25;;;;;;;3.30;3.10;;;23.50;55.30;;;;;;5076590;28;20193;-64
2021/06/15 01:50:51;;;;;;;3.47;3.17;;;23.50;55.20;;;;;;5080225;28;20188;-64
2021/06/15 01:53:17;;;;;;;2.72;2.58;;;23.50;55.30;;;;;;5077352;28;20536;-63
2021/06/15 01:55:44;;;;;;;2.92;2.72;;;23.50;55.30;;;;;;5076047;28;20599;-64
2021/06/15 01:58:10;;;;;;;3.10;2.80;;;23.50;55.30;;;;;;5077265;28;20249;-63
2021/06/15 02:00:35;;;;;;;3.50;3.20;;;23.50;55.30;;;;;;5076066;28;20197;-64
2021/06/15 02:03:02;;;;;;;3.10;2.85;;;23.50;55.30;;;;;;5076984;28;20623;-64
2021/06/15 02:05:39;;;;;;;3.33;3.03;;;23.50;55.30;;;;;;5077026;28;20213;-65
2021/06/15 02:08:08;;;;;;;2.80;2.60;;;23.50;55.30;;;;;;5076244;28;20169;-64
2021/06/15 02:10:35;;;;;;;3.00;2.80;;;23.60;55.40;;;;;;5076569;28;20264;-64
2021/06/15 02:13:00;;;;;;;3.45;3.15;;;23.50;55.40;;;;;;5076357;28;20209;-64
2021/06/15 02:15:27;;;;;;;3.17;2.88;;;23.50;55.30;;;;;;5075926;28;20198;-64
2021/06/15 02:17:53;;;;;;;2.85;2.65;;;23.50;55.30;;;;;;5076449;28;20633;-64
2021/06/15 02:20:18;;;;;;;3.47;3.17;;;23.50;55.30;;;;;;5076365;28;20240;-64
2021/06/15 02:22:45;;;;;;;3.03;2.72;;;23.50;55.40;;;;;;5075391;28;20189;-63
2021/06/15 02:25:11;;;;;;;3.42;2.75;;;23.50;55.40;;;;;;5076572;28;20567;-63
2021/06/15 02:27:36;;;;;;;2.47;2.35;;;23.40;55.30;;;;;;5076044;28;20180;-63
2021/06/15 02:30:03;;;;;;;3.10;2.90;;;23.50;55.30;;;;;;5093494;28;20166;-64
2021/06/15 02:32:31;;;;;;;3.00;2.60;;;23.50;55.40;;;;;;5094398;28;20169;-64
2021/06/15 02:34:58;;;;;;;3.22;2.92;;;23.40;55.90;;;;;;5094385;28;20188;-64
2021/06/15 02:37:27;;;;;;;2.97;2.78;;;23.40;55.30;;;;;;5075585;28;20206;-65
2021/06/15 02:39:55;;;;;;;3.05;2.85;;;23.40;55.30;;;;;;5094098;28;20174;-64
2021/06/15 02:42:21;;;;;;;2.50;2.30;;;23.40;55.30;;;;;;5076341;28;20226;-64
2021/06/15 02:44:47;;;;;;;2.90;2.70;;;23.40;55.30;;;;;;5075320;28;20609;-64
2021/06/15 02:47:12;;;;;;;3.20;2.50;;;23.40;55.30;;;;;;5076322;28;20205;-64
2021/06/15 02:49:42;;;;;;;2.45;2.22;;;23.40;55.30;;;;;;5075208;28;20173;-64
2021/06/15 02:52:11;;;;;;;2.70;2.45;;;23.40;55.30;;;;;;5075847;28;20260;-64
2021/06/15 02:54:46;;;;;;;2.80;2.50;;;23.40;55.30;;;;;;5075786;28;20185;-64
2021/06/15 02:57:12;;;;;;;2.67;2.47;;;23.40;55.30;;;;;;5074430;28;20240;-64
2021/06/15 02:59:38;;;;;;;2.53;2.33;;;23.40;55.30;;;;;;5058867;28;20624;-64
2021/06/15 03:02:06;;;;;;;2.88;2.58;;;23.40;55.30;;;;;;5075950;28;20197;-64
2021/06/15 03:04:35;;;;;;;2.80;2.60;;;23.40;55.30;;;;;;5092730;28;20201;-64
2021/06/15 03:07:00;;;;;;;2.60;2.40;;;23.40;55.30;;;;;;5075576;28;20197;-64
2021/06/15 03:09:26;;;;;;;2.92;2.70;;;23.40;55.30;;;;;;5093876;28;20552;-63
2021/06/15 03:11:57;;;;;;;2.80;2.50;;;23.40;55.30;;;;;;5092760;28;20234;-63
2021/06/15 03:14:24;;;;;;;2.90;2.70;;;23.40;55.40;;;;;;5093693;28;20182;-63
2021/06/15 03:16:50;;;;;;;2.65;2.42;;;23.40;55.40;;;;;;5075430;28;20182;-63
2021/06/15 03:19:34;;;;;;;2.97;2.72;;;23.40;55.40;;;;;;5074671;28;20616;-63
2021/06/15 03:22:04;;;;;;;2.70;2.50;;;23.40;55.40;;;;;;5075555;28;20221;-63
2021/06/15 03:24:31;;;;;;;2.78;2.58;;;23.40;55.40;;;;;;5093240;28;20205;-63
2021/06/15 03:27:07;;;;;;;2.85;2.58;;;23.40;55.40;;;;;;5074879;28;20188;-62
2021/06/15 03:29:38;;;;;;;2.25;2.15;;;23.40;55.40;;;;;;5092984;28;20197;-63
2021/06/15 03:32:14;;;;;;;3.55;2.70;;;23.40;55.40;;;;;;5092670;28;20392;-63
2021/06/15 03:34:42;;;;;;;2.90;2.70;;;23.40;55.40;;;;;;5075222;28;20189;-64
2021/06/15 03:37:12;;;;;;;2.58;2.38;;;23.40;55.40;;;;;;5075608;28;20173;-64
2021/06/15 03:39:37;;;;;;;2.88;2.67;;;23.40;55.40;;;;;;5074080;28;20249;-63
2021/06/15 03:42:03;;;;;;;2.72;2.53;;;23.40;55.40;;;;;;5075154;28;20200;-64
2021/06/15 03:44:28;;;;;;;2.63;2.45;;;23.40;55.40;;;;;;5092986;28;20304;-63
2021/06/15 03:46:55;;;;;;;2.50;2.30;;;23.30;55.40;;;;;;5074284;28;20169;-63
2021/06/15 03:49:21;;;;;;;2.45;2.33;;;23.40;56.10;;;;;;5075247;28;20178;-64
2021/06/15 03:51:54;;;;;;;2.42;2.22;;;23.30;55.40;;;;;;5074955;28;20227;-63
2021/06/15 03:54:21;;;;;;;2.55;2.03;;;23.30;55.40;;;;;;5074211;28;20544;-63
2021/06/15 03:56:47;;;;;;;2.25;2.08;;;23.40;55.40;;;;;;5092814;28;20173;-63
2021/06/15 03:59:21;;;;;;;2.75;2.25;;;23.40;55.40;;;;;;5075114;28;20177;-63
2021/06/15 04:01:49;;;;;;;2.70;2.50;;;23.30;55.40;;;;;;5074351;28;20538;-64
2021/06/15 04:04:15;;;;;;;2.30;2.20;;;23.30;55.40;;;;;;5075207;28;20281;-64
2021/06/15 04:06:45;;;;;;;2.55;2.35;;;23.30;55.40;;;;;;5074665;28;20177;-64
2021/06/15 04:09:11;;;;;;;2.50;2.30;;;23.30;55.40;;;;;;5074781;28;20178;-64
2021/06/15 04:11:37;;;;;;;2.70;2.50;;;23.30;55.40;;;;;;5074751;28;20241;-63
2021/06/15 04:14:03;;;;;;;2.60;2.40;;;23.30;55.50;;;;;;5074279;28;20262;-63
2021/06/15 04:16:29;;;;;;;2.25;2.15;;;23.30;55.40;;;;;;5093131;28;20631;-63
2021/06/15 04:18:59;;;;;;;2.60;2.40;;;23.30;55.40;;;;;;5092511;28;20174;-63
2021/06/15 04:21:28;;;;;;;2.42;2.33;;;23.30;55.40;;;;;;5073915;28;20240;-63
2021/06/15 04:23:56;;;;;;;1.98;1.80;;;23.30;55.40;;;;;;5074227;28;20213;-63
2021/06/15 04:26:22;;;;;;;2.40;2.20;;;23.30;55.50;;;;;;5093063;28;20184;-63
2021/06/15 04:28:47;;;;;;;2.10;2.00;;;23.30;55.40;;;;;;5091803;28;20173;-63
2021/06/15 04:31:14;;;;;;;2.63;2.42;;;23.30;55.40;;;;;;5092752;28;20173;-64
2021/06/15 04:33:39;;;;;;;2.20;1.92;;;23.30;55.40;;;;;;5074372;28;20640;-64
2021/06/15 04:36:05;;;;;;;2.30;1.95;;;23.30;55.40;;;;;;5073889;28;20177;-63
2021/06/15 04:38:33;;;;;;;2.28;2.17;;;23.30;55.40;;;;;;5074561;28;20185;-64
2021/06/15 04:41:01;;;;;;;2.38;2.17;;;23.30;55.40;;;;;;5074710;28;20173;-64
2021/06/15 04:43:40;;;;;;;2.30;2.20;;;23.30;55.40;;;;;;5073795;28;20188;-64
2021/06/15 04:46:25;;;;;;;2.22;2.13;;;23.30;55.40;;;;;;5092503;28;20264;-64
2021/06/15 04:48:57;;;;;;;3.17;2.35;;;23.30;55.40;;;;;;5075563;28;20210;-63
2021/06/15 04:51:23;;;;;;;2.35;2.15;;;23.30;55.50;;;;;;5074507;28;20185;-63
2021/06/15 04:53:48;;;;;;;2.42;1.85;;;23.30;55.50;;;;;;5095981;28;20166;-63
2021/06/15 04:56:14;;;;;;;2.30;2.08;;;23.30;55.50;;;;;;5077718;28;20189;-63
2021/06/15 04:58:39;;;;;;;2.05;1.85;;;23.30;55.50;;;;;;5077931;28;20174;-63
2021/06/15 05:01:05;;;;;;;2.05;1.95;;;23.30;55.50;;;;;;5078138;28;20686;-63
2021/06/15 05:03:33;;;;;;;2.10;2.00;;;23.30;55.50;;;;;;5076874;28;20504;-64
2021/06/15 05:06:06;;;;;;;2.15;2.00;;;23.30;55.50;;;;;;5096096;28;20177;-64
2021/06/15 05:08:44;;;;;;;2.10;1.90;;;23.30;55.50;;;;;;5078197;28;20184;-63
2021/06/15 05:11:10;;;;;;;2.30;2.10;;;23.30;55.50;;;;;;5095281;28;20230;-63
2021/06/15 05:13:36;;;;;;;2.42;2.17;;;23.30;55.50;;;;;;5077534;28;20165;-63
2021/06/15 05:16:02;;;;;;;2.17;2.00;;;23.30;55.60;;;;;;5095903;28;20178;-63
2021/06/15 05:18:27;;;;;;;1.83;1.73;;;23.30;55.50;;;;;;5076980;28;20177;-63
2021/06/15 05:20:53;;;;;;;2.30;2.10;;;23.30;55.50;;;;;;5095758;28;20278;-63
2021/06/15 05:23:33;;;;;;;2.38;1.90;;;23.30;55.50;;;;;;5095791;28;20688;-63
2021/06/15 05:25:59;;;;;;;2.00;1.90;;;23.30;55.90;;;;;;5094873;28;20662;-62
2021/06/15 05:28:24;;;;;;;1.77;1.65;;;23.30;55.50;;;;;;5095831;28;20214;-63
2021/06/15 05:30:50;;;;;;;2.58;2.30;;;23.20;55.50;;;;;;5095430;28;20174;-63
2021/06/15 05:33:18;;;;;;;1.85;1.75;;;23.30;55.50;;;;;;5094920;28;20166;-64
2021/06/15 05:35:43;;;;;;;1.90;1.73;;;23.30;55.50;;;;;;5095414;28;20185;-64
2021/06/15 05:38:09;;;;;;;2.85;1.95;;;23.30;55.50;;;;;;5095548;28;20261;-64
2021/06/15 05:40:35;;;;;;;2.40;2.20;;;23.30;55.50;;;;;;5094245;28;20260;-64
2021/06/15 05:43:00;;;;;;;2.08;1.98;;;23.30;55.50;;;;;;5095653;28;20186;-64
2021/06/15 05:45:26;;;;;;;2.45;2.00;;;23.30;55.50;;;;;;5095174;28;20224;-64
2021/06/15 05:47:51;;;;;;;2.08;1.77;;;23.40;55.50;;;;;;5094664;28;20173;-64
2021/06/15 05:50:17;;;;;;;2.65;2.10;;;23.40;55.40;;;;;;5095100;28;20184;-64
2021/06/15 05:52:45;;;;;;;2.42;1.80;;;23.40;55.40;;;;;;5094296;28;20539;-63
2021/06/15 05:55:12;;;;;;;1.83;1.73;;;23.40;55.40;;;;;;5095386;28;20200;-63
2021/06/15 05:57:39;;;;;;;2.17;2.00;;;23.40;55.40;;;;;;5094964;28;20198;-63
2021/06/15 06:00:06;;;;;;;1.60;1.50;;;23.40;55.40;;;;;;5094398;28;20651;-63
2021/06/15 06:02:31;;;;;;;1.85;1.50;;;23.40;55.40;;;;;;5094137;28;20199;-64
2021/06/15 06:10:07;;;;;;;1.85;1.75;;;23.40;55.40;;;;;;5095267;28;20185;-64
2021/06/15 06:12:33;;;;;;;2.58;1.55;;;23.40;55.40;;;;;;5094527;28;20169;-63
2021/06/15 06:14:59;;;;;;;1.60;1.50;;;23.40;55.30;;;;;;5094140;28;20170;-63
2021/06/15 06:17:25;;;;;;;1.92;1.65;;;23.40;55.30;;;;;;5094076;28;20182;-63
2021/06/15 06:19:51;;;;;;;1.80;1.70;;;23.40;55.30;;;;;;5076082;28;20693;-63
2021/06/15 06:22:16;;;;;;;1.60;1.50;;;23.40;55.20;;;;;;5075507;28;20178;-63
2021/06/15 06:24:42;;;;;;;1.60;1.50;;;23.40;55.20;;;;;;5094173;28;20299;-63
2021/06/15 06:27:07;;;;;;;1.80;1.70;;;23.40;55.10;;;;;;5076622;28;20174;-63
2021/06/15 06:29:33;;;;;;;2.22;1.85;;;23.40;55.20;;;;;;5093568;28;20197;-63
2021/06/15 06:31:58;;;;;;;2.92;1.70;;;23.50;55.10;;;;;;5094539;28;20190;-64
2021/06/15 06:34:24;;;;;;;1.50;1.40;;;23.50;55.20;;;;;;5094634;28;20677;-64
2021/06/15 06:36:50;;;;;;;1.48;1.38;;;23.50;55.10;;;;;;5093044;28;20587;-63
2021/06/15 06:39:16;;;;;;;1.70;1.40;;;23.50;55.10;;;;;;5094176;28;20268;-64
2021/06/15 06:41:41;;;;;;;1.98;1.52;;;23.50;55.10;;;;;;5093793;28;20174;-64
2021/06/15 06:44:07;;;;;;;1.67;1.58;;;23.50;55.20;;;;;;5093892;28;20733;-64
2021/06/15 06:46:32;;;;;;;1.85;1.70;;;23.50;55.20;;;;;;5093887;28;20170;-63
2021/06/15 06:48:58;;;;;;;1.70;1.60;;;23.50;55.20;;;;;;5093508;28;20182;-63
2021/06/15 06:51:23;;;;;;;1.70;1.60;;;23.50;55.20;;;;;;5094076;28;20661;-63
2021/06/15 06:53:49;;;;;;;1.88;1.70;;;23.50;55.20;;;;;;5093793;28;20182;-63
2021/06/15 06:56:17;;;;;;;2.05;1.60;;;23.40;55.10;;;;;;5093056;28;20169;-63
2021/06/15 06:58:45;;;;;;;1.50;1.40;;;23.50;55.10;;;;;;5093865;28;20177;-63
2021/06/15 07:01:10;;;;;;;1.80;1.70;;;23.50;55.10;;;;;;5094030;28;20173;-63
2021/06/15 07:03:35;;;;;;;2.05;1.52;;;23.50;55.00;;;;;;5092694;28;20647;-64
2021/06/15 07:06:01;;;;;;;1.90;1.45;;;23.50;55.00;;;;;;5093742;28;20170;-63
2021/06/15 07:08:26;;;;;;;1.35;1.25;;;23.50;54.90;;;;;;5093917;28;20162;-63
2021/06/15 07:10:52;;;;;;;1.85;1.20;;;23.60;55.00;;;;;;5092565;28;20202;-63
2021/06/15 07:13:18;;;;;;;1.50;1.40;;;23.50;54.90;;;;;;5093779;28;20165;-63
2021/06/15 07:15:43;;;;;;;1.58;1.45;;;23.50;54.90;;;;;;5092936;28;20178;-63
2021/06/15 07:18:09;;;;;;;2.22;1.67;;;23.50;55.00;;;;;;5092722;28;20251;-63
2021/06/15 07:20:34;;;;;;;1.70;1.52;;;23.60;55.00;;;;;;5093148;28;20257;-64
2021/06/15 07:23:00;;;;;;;1.38;1.27;;;23.50;54.90;;;;;;5093740;28;20252;-63
2021/06/15 07:25:25;;;;;;;2.00;1.52;;;23.50;55.00;;;;;;5092710;28;20286;-64
2021/06/15 07:27:51;;;;;;;3.22;1.50;;;23.50;55.00;;;;;;5093251;28;20170;-63
2021/06/15 07:30:17;;;;;;;1.67;1.45;;;23.50;55.00;;;;;;5093430;28;20170;-63
2021/06/15 07:32:42;;;;;;;1.23;1.17;;;23.60;54.90;;;;;;5092298;28;20216;-64
2021/06/15 07:35:11;;;;;;;1.90;1.40;;;23.60;54.90;;;;;;5092475;28;20182;-64
2021/06/15 07:37:37;;;;;;;1.85;1.27;;;23.60;54.90;;;;;;5093135;28;20185;-65
2021/06/15 07:40:03;;;;;;;1.88;1.55;;;23.70;54.80;;;;;;5092628;28;20181;-64
2021/06/15 07:42:29;;;;;;;1.77;1.20;;;23.60;54.70;;;;;;5093198;28;20193;-63
2021/06/15 07:44:55;;;;;;;1.70;1.35;;;23.70;54.80;;;;;;5093106;28;20239;-64
2021/06/15 07:47:21;;;;;;;1.23;1.10;;;23.70;54.70;;;;;;5092429;28;20180;-64
2021/06/15 07:49:46;;;;;;;2.78;1.30;;;23.70;54.60;;;;;;5092702;28;20589;-65
2021/06/15 07:52:12;;;;;;;1.90;1.33;;;23.80;54.70;;;;;;5092309;28;20218;-66
2021/06/15 07:54:41;;;;;;;2.22;1.50;;;23.90;54.80;;;;;;5092851;28;20588;-67
2021/06/15 07:57:08;;;;;;;6.20;1.40;;;24.00;54.80;;;;;;5093190;28;20170;-65
2021/06/15 07:59:33;;;;;;;4.70;1.20;;;23.90;54.70;;;;;;5092018;28;20174;-64
2021/06/15 08:01:59;;;;;;;4.18;1.40;;;23.90;54.60;;;;;;5092872;28;20650;-65
2021/06/15 08:04:24;;;;;;;2.30;1.50;;;23.80;54.70;;;;;;5092696;28;20198;-65
2021/06/15 08:06:50;;;;;;;3.15;1.40;;;23.80;54.60;;;;;;5091632;28;20177;-65
2021/06/15 08:09:15;;;;;;;2.38;1.27;;;23.80;54.40;;;;;;5092938;28;20194;-65
2021/06/15 08:11:41;;;;;;;3.85;1.48;;;23.90;54.30;;;;;;5092695;28;20177;-65
2021/06/15 08:14:06;;;;;;;3.75;1.25;;;23.80;54.00;;;;;;5092142;28;20178;-65
2021/06/15 08:16:32;;;;;;;5.93;1.17;;;23.90;54.00;;;;;;5092571;28;20571;-64
2021/06/15 08:18:57;;;;;;;2.00;1.25;;;23.90;53.70;;;;;;5092721;28;20620;-64
2021/06/15 08:21:23;;;;;;;3.53;1.40;;;23.90;53.40;;;;;;5091946;28;20233;-64
2021/06/15 08:23:51;;;;;;;5.22;1.25;;;23.90;54.00;;;;;;5092240;28;20555;-63
2021/06/15 08:26:19;;;;;;;4.85;1.10;;;24.00;53.40;;;;;;5093186;28;20174;-64
2021/06/15 08:28:45;;;;;;;6.25;1.23;;;24.00;53.50;;;;;;5095715;28;20162;-59
2021/06/15 08:31:11;;;;;;;5.07;1.55;;;24.00;53.60;;;;;;5096652;28;20234;-59
2021/06/15 08:33:36;;;;;;;1.77;1.20;;;24.00;53.60;;;;;;5095803;28;20636;-60
2021/06/15 08:36:02;;;;;;;3.67;1.20;;;24.00;53.60;;;;;;5094101;28;20186;-60
2021/06/15 08:38:28;;;;;;;3.30;1.55;;;24.00;53.60;;;;;;5095487;28;20196;-59
2021/06/15 08:40:53;;;;;;;2.67;1.42;;;24.10;53.70;;;;;;5095826;28;20177;-60
2021/06/15 08:43:19;;;;;;;3.28;1.30;;;24.10;53.70;;;;;;5095897;28;20176;-60
2021/06/15 08:45:45;;;;;;;1.92;1.25;;;24.10;53.80;;;;;;5096179;28;20743;-60
2021/06/15 08:48:11;;;;;;;1.77;1.23;;;24.10;53.80;;;;;;5096362;28;20174;-60
2021/06/15 08:50:37;;;;;;;2.67;0.80;;;24.10;53.80;;;;;;5095557;28;20173;-60
2021/06/15 08:53:03;;;;;;;2.97;1.40;;;24.10;53.90;;;;;;5096524;28;20170;-60
2021/06/15 08:55:30;;;;;;;2.97;1.45;;;24.10;54.00;;;;;;5095300;28;20178;-63
2021/06/15 08:58:38;;;;;;;2.70;1.40;;;24.10;54.00;;;;;;5095869;28;20221;-63
2021/06/15 09:01:07;;;;;;;2.70;1.10;;;24.20;54.20;;;;;;5094871;28;20181;-62
2021/06/15 09:03:33;;;;;;;4.05;1.00;;;24.10;54.20;;;;;;5075946;28;20212;-62
2021/06/15 09:05:58;;;;;;;4.32;1.25;;;24.20;54.30;;;;;;5095926;28;20222;-62
2021/06/15 09:08:24;;;;;;;3.75;1.35;;;24.20;54.20;;;;;;5095838;28;20181;-62
2021/06/15 09:10:51;;;;;;;2.97;1.45;;;24.20;54.20;;;;;;5076626;28;20517;-62
2021/06/15 09:13:41;;;;;;;3.78;1.13;;;24.20;54.20;;;;;;5095730;28;20193;-61
2021/06/15 09:16:25;;;;;;;1.92;0.90;;;24.30;54.10;;;;;;5086661;28;20201;-62
2021/06/15 09:18:52;;;;;;;4.15;1.10;;;24.20;54.10;;;;;;5081830;28;20663;-62
2021/06/15 09:21:30;;;;;;;1.92;1.20;;;24.30;54.20;;;;;;5094840;28;20241;-61
2021/06/15 09:24:13;;;;;;;1.63;0.95;;;24.30;54.20;;;;;;5095131;28;20177;-62
2021/06/15 09:27:05;;;;;;;2.63;1.10;;;24.20;54.30;;;;;;5095515;28;20174;-61
2021/06/15 09:29:44;;;;;;;2.97;1.17;;;24.20;54.30;;;;;;5095424;28;20260;-61
2021/06/15 09:32:23;;;;;;;1.67;1.00;;;24.30;54.20;;;;;;5095098;28;20236;-61
2021/06/15 09:34:53;;;;;;;3.05;1.10;;;24.30;54.20;;;;;;5095479;28;20320;-62
2021/06/15 09:37:31;;;;;;;2.00;1.13;;;24.30;54.20;;;;;;5095502;28;20173;-61
2021/06/15 09:39:57;;;;;;;2.15;1.48;;;24.40;54.20;;;;;;5094559;28;20170;-61
2021/06/15 09:42:23;;;;;;;1.23;0.93;;;24.40;54.20;;;;;;5095385;28;20181;-61
2021/06/15 09:44:48;;;;;;;1.63;1.10;;;24.40;54.10;;;;;;5094301;28;20213;-62
2021/06/15 09:47:14;;;;;;;1.52;1.10;;;24.40;54.10;;;;;;5095477;28;20188;-61
2021/06/15 09:49:40;;;;;;;3.33;1.30;;;24.50;54.10;;;;;;5095036;28;20177;-62
2021/06/15 09:52:23;;;;;;;2.22;0.93;;;24.50;54.00;;;;;;5094671;28;20174;-62
2021/06/15 09:54:57;;;;;;;2.60;1.17;;;24.50;53.90;;;;;;5094867;28;20644;-62
2021/06/15 09:57:27;;;;;;;1.48;1.00;;;24.50;53.90;;;;;;5094915;28;20624;-61
2021/06/15 10:00:14;;;;;;;1.98;0.90;;;24.50;54.00;;;;;;5094244;28;20186;-62
2021/06/15 10:02:49;;;;;;;1.98;1.00;;;24.50;54.00;;;;;;5094849;28;20219;-62
2021/06/15 10:05:36;;;;;;;1.30;0.73;;;24.60;54.00;;;;;;5094683;28;20667;-62
2021/06/15 10:08:11;;;;;;;1.20;0.90;;;24.50;53.90;;;;;;5094393;28;20170;-62
2021/06/15 10:10:44;;;;;;;2.08;1.30;;;24.60;54.00;;;;;;5094578;28;20173;-61
2021/06/15 10:13:10;;;;;;;0.90;0.90;;;24.60;53.90;;;;;;5094198;28;20624;-61
2021/06/15 10:15:38;;;;;;;1.85;0.93;;;24.60;54.00;;;;;;5094461;28;20181;-61
2021/06/15 10:18:04;;;;;;;2.30;1.02;;;24.60;54.00;;;;;;5094549;28;20178;-61
2021/06/15 10:20:31;;;;;;;1.77;1.00;;;24.60;54.00;;;;;;5093580;28;20232;-62
2021/06/15 10:22:58;;;;;;;3.80;1.17;;;24.60;53.90;;;;;;5094576;28;20632;-62
2021/06/15 10:25:25;;;;;;;2.22;1.05;;;24.60;53.90;;;;;;5094689;28;20280;-61
2021/06/15 10:27:51;;;;;;;1.60;1.00;;;24.60;53.90;;;;;;5093620;28;20252;-63
2021/06/15 10:30:17;;;;;;;2.17;1.10;;;24.70;53.90;;;;;;5076567;28;20185;-64
2021/06/15 10:32:54;;;;;;;2.15;1.40;;;24.70;54.00;;;;;;5094266;28;20206;-62
2021/06/15 10:35:37;;;;;;;2.45;0.95;;;24.70;54.00;;;;;;5093879;28;20189;-61
2021/06/15 10:38:05;;;;;;;4.43;1.30;;;24.70;53.90;;;;;;5094191;28;20182;-61
2021/06/15 10:40:32;;;;;;;3.17;1.10;;;24.70;53.90;;;;;;5093867;28;20174;-61
2021/06/15 10:43:20;;;;;;;2.60;0.95;;;24.60;54.00;;;;;;5093640;28;20188;-61
2021/06/15 10:46:06;;;;;;;3.72;0.90;;;24.70;54.00;;;;;;5093915;28;20210;-61
2021/06/15 10:48:36;;;;;;;1.90;1.00;;;24.70;53.90;;;;;;5092541;28;20592;-62
2021/06/15 10:51:02;;;;;;;3.20;1.20;;;24.60;54.00;;;;;;5093558;28;20525;-63
2021/06/15 10:53:39;;;;;;;2.58;1.05;;;24.60;54.10;;;;;;5092609;28;20182;-60
2021/06/15 10:56:09;;;;;;;2.58;0.88;;;24.60;53.20;;;;;;5093097;28;20572;-62
2021/06/15 10:58:34;;;;;;;3.38;1.13;;;24.60;52.50;;;;;;5093651;28;20201;-62
2021/06/15 11:01:19;;;;;;;2.88;0.90;;;24.60;52.50;;;;;;5093876;28;20535;-61
2021/06/15 11:03:51;;;;;;;1.52;0.70;;;24.70;52.60;;;;;;5092584;28;20283;-62
2021/06/15 11:06:20;;;;;;;2.72;1.13;;;24.70;52.60;;;;;;5093829;28;20181;-62
2021/06/15 11:08:45;;;;;;;2.97;0.95;;;24.70;52.70;;;;;;5093590;28;20194;-62
2021/06/15 11:11:18;;;;;;;3.42;0.90;;;24.80;52.70;;;;;;5091534;28;20669;-63
2021/06/15 11:13:51;;;;;;;2.58;1.10;;;24.70;52.80;;;;;;5093263;28;20187;-62
2021/06/15 11:16:23;;;;;;;1.98;1.00;;;24.70;52.80;;;;;;5092832;28;20200;-62
2021/06/15 11:19:08;;;;;;;3.03;1.10;;;24.70;52.90;;;;;;5093341;28;20173;-62
2021/06/15 11:21:52;;;;;;;2.72;0.98;;;24.80;53.00;;;;;;5092971;28;20305;-62
2021/06/15 11:24:36;;;;;;;2.83;1.23;;;24.80;53.10;;;;;;5092530;28;20209;-61
2021/06/15 11:27:12;;;;;;;2.63;0.95;;;24.80;53.70;;;;;;5093484;28;20201;-62
2021/06/15 11:29:41;;;;;;;2.75;1.20;;;24.80;53.10;;;;;;5092933;28;20650;-64
2021/06/15 11:32:25;;;;;;;6.13;1.25;;;24.90;53.10;;;;;;5092457;28;20174;-63
2021/06/15 11:34:57;;;;;;;1.95;0.70;;;24.90;53.30;;;;;;5092878;28;20177;-65
2021/06/15 11:37:37;;;;;;;3.72;0.95;;;24.90;53.10;;;;;;5092059;28;20543;-64
2021/06/15 11:40:30;;;;;;;1.85;0.80;;;24.90;53.10;;;;;;5093197;28;20600;-65
2021/06/15 11:43:07;;;;;;;3.13;0.90;;;25.00;53.10;;;;;;5093098;28;20511;-65
2021/06/15 11:45:40;;;;;;;2.40;1.05;;;25.00;53.10;;;;;;5092205;28;20630;-64
2021/06/15 11:48:26;;;;;;;2.58;0.93;;;24.90;53.10;;;;;;5093002;28;20536;-64
2021/06/15 11:50:55;;;;;;;2.92;1.33;;;25.00;53.30;;;;;;5092635;28;20177;-65
2021/06/15 11:53:21;;;;;;;3.63;1.00;;;25.00;53.20;;;;;;5092105;28;20640;-65
2021/06/15 11:55:50;;;;;;;3.60;1.10;;;25.00;53.20;;;;;;5092700;28;20231;-64
2021/06/15 11:58:32;;;;;;;1.70;0.90;;;25.00;53.20;;;;;;5092006;28;20536;-64
2021/06/15 12:00:59;;;;;;;2.08;0.70;;;25.00;53.20;;;;;;5091418;28;20185;-65
2021/06/15 12:03:26;;;;;;;0.80;0.60;;;25.10;53.20;;;;;;5093010;28;20287;-65
2021/06/15 12:05:55;;;;;;;2.05;0.80;;;25.10;53.20;;;;;;5091819;28;20225;-66
2021/06/15 12:08:24;;;;;;;2.50;0.80;;;25.10;53.10;;;;;;5092879;28;20177;-65
2021/06/15 12:10:50;;;;;;;3.65;1.00;;;25.10;53.10;;;;;;5092583;28;20546;-65
2021/06/15 12:13:20;;;;;;;1.35;0.88;;;25.20;53.10;;;;;;5092173;28;20195;-65
2021/06/15 12:15:49;;;;;;;1.35;0.60;;;25.20;53.10;;;;;;5092485;28;20231;-64
2021/06/15 12:18:30;;;;;;;2.05;1.02;;;25.20;53.10;;;;;;5092781;28;20258;-64
2021/06/15 12:21:14;;;;;;;1.85;1.00;;;25.20;53.20;;;;;;5091759;28;20228;-65
2021/06/15 12:23:50;;;;;;;2.58;0.77;;;25.20;53.10;;;;;;5092532;28;20265;-62
2021/06/15 12:26:36;;;;;;;4.13;0.80;;;25.20;53.20;;;;;;5093053;28;20181;-62
2021/06/15 12:29:10;;;;;;;1.65;0.90;;;25.10;53.40;;;;;;5092589;28;20170;-62
2021/06/15 12:31:36;;;;;;;1.45;0.70;;;25.10;53.50;;;;;;5092334;28;20632;-62
2021/06/15 12:34:04;;;;;;;1.27;0.90;;;25.00;53.60;;;;;;5091911;28;20177;-63
2021/06/15 12:36:31;;;;;;;1.40;1.00;;;25.00;53.70;;;;;;5092320;28;20640;-62
2021/06/15 12:39:29;;;;;;;1.27;0.75;;;25.00;53.80;;;;;;5092643;28;20220;-62
2021/06/15 12:41:58;;;;;;;3.28;1.00;;;24.90;53.80;;;;;;5068864;28;20592;-62
2021/06/15 12:44:25;;;;;;;1.70;0.98;;;24.90;53.90;;;;;;5091378;28;20299;-62
2021/06/15 12:46:59;;;;;;;1.45;0.80;;;24.90;53.90;;;;;;5074281;28;20181;-63
2021/06/15 12:49:25;;;;;;;2.65;1.10;;;24.90;54.00;;;;;;5090664;28;20196;-63
2021/06/15 12:51:56;;;;;;;1.08;0.77;;;24.90;54.00;;;;;;5092215;28;20628;-62
2021/06/15 12:54:40;;;;;;;1.83;0.75;;;24.80;54.10;;;;;;5092515;28;20196;-61
2021/06/15 12:57:06;;;;;;;2.80;0.80;;;24.80;54.10;;;;;;5092646;28;20184;-61
2021/06/15 12:59:33;;;;;;;2.30;0.77;;;24.80;54.20;;;;;;5092036;28;20182;-61
2021/06/15 13:01:59;;;;;;;0.85;0.70;;;24.80;54.20;;;;;;5091817;28;20177;-61
2021/06/15 13:04:26;;;;;;;3.47;0.70;;;24.80;54.30;;;;;;5092219;28;20214;-62